Time;durP1;ratioP1;P1;durP2;ratioP2;P2;SDS_P1;SDS_P2;PMS_P1;PMS_P2;Temp;Humidity;BMP_temperature;BMP_pressure;BME280_temperature;BME280_humidity;BME280_pressure;Samples;Min_cycle;Max_cycle;Signal;HPM_P1;HPM_P2
2023/12/12 00:00:32;;;;;;;7.30;2.63;;;7.90;99.90;;;;;;4985732;28;20046;-62
2023/12/12 00:02:58;;;;;;;13.98;2.70;;;7.90;99.90;;;;;;4986507;28;20045;-62
2023/12/12 00:05:24;;;;;;;8.13;1.83;;;7.80;99.90;;;;;;4985924;28;20054;-62
2023/12/12 00:07:50;;;;;;;7.88;1.70;;;7.80;99.90;;;;;;4962652;28;20050;-62
2023/12/12 00:10:16;;;;;;;7.40;1.70;;;7.70;99.90;;;;;;4967378;28;20035;-62
2023/12/12 00:12:42;;;;;;;5.93;1.70;;;7.70;99.90;;;;;;4967591;28;20078;-62
2023/12/12 00:15:08;;;;;;;6.82;1.83;;;7.70;99.90;;;;;;4967288;28;20062;-62
2023/12/12 00:17:34;;;;;;;3.95;1.48;;;7.60;99.90;;;;;;4982638;28;20113;-62
2023/12/12 00:20:00;;;;;;;7.85;1.45;;;7.60;99.90;;;;;;4984781;28;20050;-62
2023/12/12 00:22:26;;;;;;;3.97;1.20;;;7.60;99.90;;;;;;4985632;28;20117;-62
2023/12/12 00:24:51;;;;;;;6.18;1.77;;;7.60;99.90;;;;;;4983267;28;21380;-62
2023/12/12 00:27:17;;;;;;;8.80;1.77;;;7.50;99.90;;;;;;4983262;28;20048;-62
2023/12/12 00:29:45;;;;;;;4.60;1.58;;;7.50;99.90;;;;;;4986222;28;20085;-62
2023/12/12 00:32:10;;;;;;;5.35;1.40;;;7.50;99.90;;;;;;4978241;28;20054;-62
2023/12/12 00:34:37;;;;;;;9.20;1.77;;;7.50;99.90;;;;;;4984718;28;20045;-62
2023/12/12 00:37:03;;;;;;;7.50;2.08;;;7.40;99.90;;;;;;4984043;28;20449;-62
2023/12/12 00:39:29;;;;;;;5.55;1.30;;;7.40;99.90;;;;;;4981013;28;20039;-62
2023/12/12 00:41:55;;;;;;;5.13;1.30;;;7.30;99.90;;;;;;4984646;28;20129;-62
2023/12/12 00:44:20;;;;;;;8.65;1.55;;;7.30;99.90;;;;;;4983805;28;20038;-62
2023/12/12 00:46:46;;;;;;;4.32;1.55;;;7.30;99.90;;;;;;4987357;28;20565;-62
2023/12/12 00:49:12;;;;;;;4.55;1.60;;;7.30;99.90;;;;;;4984329;28;20105;-62
2023/12/12 00:51:38;;;;;;;4.65;1.60;;;7.30;99.90;;;;;;4987729;28;20096;-62
2023/12/12 00:54:04;;;;;;;7.85;1.77;;;7.20;99.90;;;;;;4988206;28;20057;-62
2023/12/12 00:56:30;;;;;;;4.93;1.40;;;7.20;99.90;;;;;;4989235;28;20045;-62
2023/12/12 00:58:55;;;;;;;10.27;2.95;;;7.20;99.90;;;;;;4971393;28;20054;-62
2023/12/12 01:01:21;;;;;;;5.07;1.42;;;7.20;99.90;;;;;;4967269;28;20414;-62
2023/12/12 01:03:47;;;;;;;3.65;1.20;;;7.20;99.90;;;;;;4985813;28;20051;-62
2023/12/12 01:06:26;;;;;;;4.68;1.40;;;7.10;99.90;;;;;;4981064;28;20086;-62
2023/12/12 01:08:52;;;;;;;6.70;1.85;;;7.10;99.90;;;;;;4950945;28;20046;-62
2023/12/12 01:11:18;;;;;;;3.30;1.33;;;7.10;99.90;;;;;;4980053;28;20042;-62
2023/12/12 01:13:45;;;;;;;6.95;1.58;;;7.00;99.90;;;;;;4977388;28;20046;-62
2023/12/12 01:16:10;;;;;;;6.03;1.30;;;7.00;99.90;;;;;;4983064;28;20050;-62
2023/12/12 01:18:36;;;;;;;8.27;1.30;;;7.00;99.90;;;;;;4979915;28;20046;-62
2023/12/12 01:21:02;;;;;;;6.18;1.83;;;6.90;99.90;;;;;;4983676;28;20046;-62
2023/12/12 01:23:51;;;;;;;5.30;2.50;;;6.80;99.90;;;;;;4981642;28;20058;-62
2023/12/12 01:26:19;;;;;;;5.82;1.83;;;6.80;99.90;;;;;;4966080;28;20042;-62
2023/12/12 01:28:45;;;;;;;7.35;2.22;;;6.80;99.90;;;;;;4983157;28;20122;-62
2023/12/12 01:31:10;;;;;;;6.80;2.13;;;6.70;99.90;;;;;;4982528;28;20117;-62
2023/12/12 01:33:36;;;;;;;3.95;2.10;;;6.70;99.90;;;;;;4965875;28;20061;-62
2023/12/12 01:36:02;;;;;;;5.40;2.17;;;6.60;99.90;;;;;;4965482;28;20072;-62
2023/12/12 01:38:29;;;;;;;3.38;1.60;;;6.60;99.90;;;;;;4979500;28;20389;-61
2023/12/12 01:40:54;;;;;;;6.35;1.83;;;6.60;99.90;;;;;;4976583;28;20057;-62
2023/12/12 01:43:29;;;;;;;5.10;1.58;;;6.50;99.90;;;;;;4964912;28;20050;-62
2023/12/12 01:45:57;;;;;;;5.95;1.55;;;6.50;99.90;;;;;;4978893;28;20056;-62
2023/12/12 01:48:23;;;;;;;7.57;1.55;;;6.40;99.90;;;;;;4983374;28;20054;-62
2023/12/12 01:50:53;;;;;;;4.60;1.15;;;6.40;99.90;;;;;;4961768;28;20096;-62
2023/12/12 01:53:27;;;;;;;8.43;1.52;;;6.30;99.90;;;;;;4976711;28;20034;-61
2023/12/12 01:55:52;;;;;;;;;;;6.20;99.90;;;;;;4982988;28;20040;-62
2023/12/12 01:58:20;;;;;;;2.20;1.10;;;6.10;99.90;;;;;;4982723;28;20549;-62
2023/12/12 02:00:47;;;;;;;6.57;1.88;;;6.00;99.90;;;;;;4982737;28;20102;-62
2023/12/12 02:03:14;;;;;;;2.90;1.23;;;6.00;99.90;;;;;;4976984;28;20170;-61
2023/12/12 02:05:41;;;;;;;4.57;1.55;;;6.00;99.90;;;;;;4981760;28;20074;-61
2023/12/12 02:08:07;;;;;;;8.75;1.45;;;6.00;99.90;;;;;;4979660;28;20054;-61
2023/12/12 02:10:33;;;;;;;6.90;1.85;;;5.90;99.90;;;;;;4979599;28;20093;-62
2023/12/12 02:12:59;;;;;;;5.82;1.30;;;5.90;99.90;;;;;;4981583;28;20102;-62
2023/12/12 02:15:25;;;;;;;7.72;1.73;;;5.90;99.90;;;;;;4980624;28;20126;-62
2023/12/12 02:17:50;;;;;;;5.85;1.63;;;5.80;99.90;;;;;;4978076;28;20501;-62
2023/12/12 02:20:16;;;;;;;6.68;1.83;;;5.70;99.90;;;;;;4962897;28;20080;-61
2023/12/12 02:22:42;;;;;;;7.25;1.60;;;5.70;99.90;;;;;;4977910;28;20133;-62
2023/12/12 02:25:08;;;;;;;8.38;1.77;;;5.70;99.90;;;;;;4979292;28;20054;-62
2023/12/12 02:27:35;;;;;;;4.65;1.80;;;5.70;99.90;;;;;;4975994;28;20050;-62
2023/12/12 02:30:42;;;;;;;8.05;2.33;;;5.60;99.90;;;;;;4970891;28;20122;-61
2023/12/12 02:33:08;;;;;;;8.40;2.00;;;5.60;99.90;;;;;;4978663;28;20073;-62
2023/12/12 02:35:33;;;;;;;5.85;1.83;;;5.60;99.90;;;;;;4981094;28;20548;-62
2023/12/12 02:37:59;;;;;;;6.65;1.70;;;5.60;99.90;;;;;;4980244;28;20176;-62
2023/12/12 02:40:25;;;;;;;7.88;1.70;;;5.60;99.90;;;;;;4980731;28;20042;-62
2023/12/12 02:42:51;;;;;;;6.90;1.58;;;5.60;99.90;;;;;;4963108;28;20049;-61
2023/12/12 02:45:17;;;;;;;4.95;1.67;;;5.60;99.90;;;;;;4977390;28;20136;-62
2023/12/12 02:47:42;;;;;;;6.65;1.50;;;5.50;99.90;;;;;;4962037;28;20046;-62
2023/12/12 02:50:08;;;;;;;5.45;1.50;;;5.50;99.90;;;;;;4977461;28;20085;-62
2023/12/12 02:52:34;;;;;;;6.90;1.85;;;5.50;99.90;;;;;;4965047;28;20569;-62
2023/12/12 02:55:00;;;;;;;6.55;1.98;;;5.50;99.90;;;;;;4966089;28;20121;-61
2023/12/12 02:57:25;;;;;;;9.13;2.35;;;5.50;99.90;;;;;;4966389;28;20070;-61
2023/12/12 02:59:51;;;;;;;4.45;1.73;;;5.40;99.90;;;;;;4983459;28;20038;-62
2023/12/12 03:02:17;;;;;;;9.10;2.00;;;5.40;99.90;;;;;;4980781;28;20089;-61
2023/12/12 03:04:43;;;;;;;8.15;2.00;;;5.30;99.90;;;;;;4985964;28;20061;-62
2023/12/12 03:07:09;;;;;;;6.38;1.88;;;5.30;99.90;;;;;;4983455;28;20046;-62
2023/12/12 03:09:35;;;;;;;5.72;1.83;;;5.30;99.90;;;;;;4982449;28;20398;-62
2023/12/12 03:12:00;;;;;;;3.83;1.90;;;5.30;99.90;;;;;;4981710;28;20042;-61
2023/12/12 03:14:29;;;;;;;6.85;2.10;;;5.30;99.90;;;;;;4981912;28;20113;-62
2023/12/12 03:16:55;;;;;;;12.85;2.35;;;5.30;99.90;;;;;;4976183;28;20495;-62
2023/12/12 03:19:22;;;;;;;5.22;2.05;;;5.20;99.90;;;;;;4980122;28;20050;-62
2023/12/12 03:21:48;;;;;;;11.52;2.30;;;5.20;99.90;;;;;;4982213;28;20258;-62
2023/12/12 03:24:14;;;;;;;12.27;3.95;;;5.20;99.90;;;;;;4974096;28;20051;-62
2023/12/12 03:26:40;;;;;;;5.82;2.10;;;5.20;99.90;;;;;;4979509;28;20046;-62
2023/12/12 03:29:05;;;;;;;9.57;2.28;;;5.20;99.90;;;;;;4980974;28;20043;-61
2023/12/12 03:31:31;;;;;;;6.70;2.50;;;5.20;99.90;;;;;;4980691;28;20103;-62
2023/12/12 03:33:57;;;;;;;10.50;3.15;;;5.20;99.90;;;;;;4999547;28;20043;-62
2023/12/12 03:36:23;;;;;;;8.10;3.00;;;5.10;99.90;;;;;;4982081;28;20039;-62
2023/12/12 03:38:49;;;;;;;11.25;3.17;;;5.10;99.90;;;;;;4982833;28;20063;-61
2023/12/12 03:41:16;;;;;;;6.30;2.17;;;5.00;99.90;;;;;;4967303;28;20113;-62
2023/12/12 03:43:42;;;;;;;11.45;3.28;;;5.00;99.90;;;;;;4968837;28;20065;-62
2023/12/12 03:46:12;;;;;;;7.88;2.45;;;5.00;99.90;;;;;;4982080;28;20054;-62
2023/12/12 03:48:37;;;;;;;8.68;2.45;;;5.00;99.90;;;;;;4988069;28;20034;-62
2023/12/12 03:51:03;;;;;;;12.30;2.97;;;4.90;99.90;;;;;;4987399;28;20050;-61
2023/12/12 03:53:29;;;;;;;9.60;2.83;;;4.90;99.90;;;;;;4968542;28;20042;-62
2023/12/12 03:55:55;;;;;;;9.93;2.53;;;5.00;99.90;;;;;;4982456;28;20046;-61
2023/12/12 03:58:20;;;;;;;13.80;2.83;;;5.00;99.90;;;;;;4983593;28;20122;-61
2023/12/12 04:00:46;;;;;;;10.00;2.65;;;5.10;99.90;;;;;;4967336;28;20169;-62
2023/12/12 04:03:11;;;;;;;7.05;3.15;;;5.00;99.90;;;;;;4984683;28;20105;-61
2023/12/12 04:05:37;;;;;;;7.68;3.25;;;5.10;99.90;;;;;;4981274;28;20057;-61
2023/12/12 04:08:04;;;;;;;8.18;3.13;;;5.10;99.90;;;;;;4983437;28;20050;-61
2023/12/12 04:10:30;;;;;;;9.60;4.20;;;5.10;99.90;;;;;;4981150;28;20043;-61
2023/12/12 04:12:56;;;;;;;10.85;3.70;;;5.10;99.90;;;;;;4983262;28;20049;-61
2023/12/12 04:15:22;;;;;;;10.25;3.90;;;5.20;99.90;;;;;;4981523;28;20125;-61
2023/12/12 04:17:48;;;;;;;8.63;3.45;;;5.10;99.90;;;;;;4981725;28;20056;-61
2023/12/12 04:20:13;;;;;;;6.30;3.08;;;5.20;99.90;;;;;;4984702;28;20050;-61
2023/12/12 04:22:39;;;;;;;16.42;3.78;;;5.20;99.90;;;;;;4966862;28;20046;-61
2023/12/12 04:25:06;;;;;;;8.45;3.72;;;5.20;99.90;;;;;;4967426;28;20034;-61
2023/12/12 04:27:32;;;;;;;18.08;5.50;;;5.10;99.90;;;;;;4983888;28;20049;-61
2023/12/12 04:29:57;;;;;;;11.52;4.45;;;5.20;99.90;;;;;;4980484;28;20187;-62
2023/12/12 04:32:23;;;;;;;7.57;3.50;;;5.10;99.90;;;;;;4997658;28;20070;-61
2023/12/12 04:34:49;;;;;;;13.50;5.57;;;5.10;99.90;;;;;;4982869;28;20042;-61
2023/12/12 04:37:15;;;;;;;11.50;3.90;;;5.20;99.90;;;;;;4980708;28;20104;-61
2023/12/12 04:39:40;;;;;;;10.02;3.70;;;5.20;99.90;;;;;;4962439;28;20042;-61
2023/12/12 04:42:06;;;;;;;10.70;4.20;;;5.20;99.90;;;;;;4980803;28;20126;-62
2023/12/12 04:44:33;;;;;;;13.77;4.57;;;5.20;99.90;;;;;;4968908;28;20053;-62
2023/12/12 04:46:58;;;;;;;13.15;4.07;;;5.30;99.90;;;;;;4985260;28;20046;-62
2023/12/12 04:49:24;;;;;;;13.70;4.43;;;5.30;99.90;;;;;;4980738;28;20050;-61
2023/12/12 04:51:50;;;;;;;11.52;3.88;;;5.30;99.90;;;;;;4984642;28;20667;-62
2023/12/12 04:54:16;;;;;;;7.82;3.83;;;5.30;99.90;;;;;;4981118;28;20583;-62
2023/12/12 04:56:41;;;;;;;11.65;4.95;;;5.30;99.90;;;;;;4964091;28;20112;-62
2023/12/12 04:59:07;;;;;;;15.40;5.20;;;5.30;99.90;;;;;;4965762;28;20042;-62
2023/12/12 05:01:33;;;;;;;12.90;4.47;;;5.40;99.90;;;;;;4982195;28;20057;-62
2023/12/12 05:03:59;;;;;;;9.02;4.70;;;5.40;99.90;;;;;;4981221;28;20046;-62
2023/12/12 05:06:25;;;;;;;12.13;5.50;;;5.40;99.90;;;;;;4979593;28;20702;-62
2023/12/12 05:08:51;;;;;;;12.10;5.80;;;5.40;99.90;;;;;;4979201;28;20046;-62
2023/12/12 05:11:17;;;;;;;12.20;5.63;;;5.40;99.90;;;;;;4966422;28;20061;-62
2023/12/12 05:13:43;;;;;;;13.38;5.78;;;5.40;99.90;;;;;;4983075;28;20639;-61
2023/12/12 05:16:09;;;;;;;12.48;6.05;;;5.40;99.90;;;;;;4981356;28;20180;-61
2023/12/12 05:18:36;;;;;;;12.63;5.57;;;5.40;99.90;;;;;;4980059;28;20577;-62
2023/12/12 05:21:02;;;;;;;11.50;5.00;;;5.40;99.90;;;;;;4985089;28;20038;-61
2023/12/12 05:23:28;;;;;;;14.80;5.82;;;5.30;99.90;;;;;;4982166;28;20043;-62
2023/12/12 05:25:53;;;;;;;11.18;6.03;;;5.30;99.90;;;;;;4981277;28;20089;-62
2023/12/12 05:28:20;;;;;;;13.18;6.05;;;5.30;99.90;;;;;;4981433;28;20050;-62
2023/12/12 05:30:45;;;;;;;15.27;6.68;;;5.40;99.90;;;;;;4981073;28;20063;-62
2023/12/12 05:33:12;;;;;;;14.73;6.32;;;5.30;99.90;;;;;;4977549;28;20046;-62
2023/12/12 05:35:38;;;;;;;11.63;5.43;;;5.30;99.90;;;;;;4983949;28;20417;-61
2023/12/12 05:38:05;;;;;;;13.07;6.70;;;5.30;99.90;;;;;;4980838;28;20049;-61
2023/12/12 05:40:31;;;;;;;13.40;5.93;;;5.20;99.90;;;;;;4979763;28;20046;-61
2023/12/12 05:42:56;;;;;;;12.88;5.88;;;5.10;99.90;;;;;;4966314;28;20058;-62
2023/12/12 05:45:23;;;;;;;13.05;6.28;;;5.10;99.90;;;;;;4979620;28;20050;-61
2023/12/12 05:47:48;;;;;;;9.00;4.72;;;5.10;99.90;;;;;;4967324;28;20039;-61
2023/12/12 05:50:14;;;;;;;15.85;6.32;;;5.10;99.90;;;;;;4978172;28;20048;-61
2023/12/12 05:52:40;;;;;;;15.13;6.32;;;5.10;99.90;;;;;;4974367;28;20030;-62
2023/12/12 05:55:06;;;;;;;15.57;6.82;;;5.10;99.90;;;;;;4982729;28;20408;-61
2023/12/12 05:57:32;;;;;;;11.98;5.80;;;5.20;99.90;;;;;;4967441;28;20050;-60
2023/12/12 05:59:59;;;;;;;12.90;6.32;;;5.20;99.90;;;;;;4980279;28;20518;-61
2023/12/12 06:02:25;;;;;;;15.90;7.00;;;5.10;99.90;;;;;;4964986;28;21333;-61
2023/12/12 06:04:51;;;;;;;13.88;7.63;;;5.10;99.90;;;;;;4963642;28;20042;-61
2023/12/12 06:07:17;;;;;;;19.20;8.85;;;5.10;99.90;;;;;;4981620;28;20076;-61
2023/12/12 06:09:43;;;;;;;16.42;9.40;;;5.10;99.90;;;;;;4968232;28;20038;-61
2023/12/12 06:12:09;;;;;;;20.35;10.07;;;5.10;99.90;;;;;;4983815;28;20512;-61
2023/12/12 06:14:38;;;;;;;20.92;9.55;;;5.10;99.90;;;;;;4979478;28;20038;-61
2023/12/12 06:17:05;;;;;;;18.25;8.98;;;5.00;99.90;;;;;;4980207;28;20043;-61
2023/12/12 06:19:31;;;;;;;13.25;8.27;;;5.00;99.90;;;;;;4981971;28;20046;-61
2023/12/12 06:21:57;;;;;;;18.13;8.90;;;4.90;99.90;;;;;;4960817;28;20142;-61
2023/12/12 06:24:23;;;;;;;14.32;6.65;;;4.90;99.90;;;;;;4981042;28;20705;-61
2023/12/12 06:26:49;;;;;;;14.98;7.10;;;4.90;99.90;;;;;;4980651;28;20073;-61
2023/12/12 06:29:14;;;;;;;15.23;6.93;;;4.90;99.90;;;;;;4982066;28;20050;-62
2023/12/12 06:31:40;;;;;;;14.55;7.22;;;4.90;99.90;;;;;;4976605;28;20034;-62
2023/12/12 06:34:08;;;;;;;11.48;6.85;;;4.90;99.90;;;;;;4979430;28;20050;-62
2023/12/12 06:36:34;;;;;;;15.57;7.35;;;4.90;99.90;;;;;;4983744;28;20493;-62
2023/12/12 06:39:00;;;;;;;11.00;6.47;;;5.00;99.90;;;;;;4979323;28;20067;-61
2023/12/12 06:41:25;;;;;;;14.27;6.30;;;4.90;99.90;;;;;;4979966;28;20034;-63
2023/12/12 06:43:51;;;;;;;14.73;7.07;;;4.90;99.90;;;;;;4948788;28;20162;-62
2023/12/12 06:46:18;;;;;;;13.40;6.50;;;4.90;99.90;;;;;;4966811;28;20576;-61
2023/12/12 06:48:44;;;;;;;14.63;8.20;;;4.90;99.90;;;;;;4963209;28;20112;-62
2023/12/12 06:51:09;;;;;;;16.05;7.93;;;4.90;99.90;;;;;;4979322;28;22981;-62
2023/12/12 06:53:36;;;;;;;14.52;6.95;;;5.00;99.90;;;;;;4964278;28;20039;-62
2023/12/12 06:56:02;;;;;;;12.00;6.57;;;5.00;99.90;;;;;;4984619;28;20043;-62
2023/12/12 06:58:28;;;;;;;14.48;7.20;;;5.00;99.90;;;;;;4978178;28;20177;-62
2023/12/12 07:00:54;;;;;;;22.58;10.30;;;5.00;99.90;;;;;;4954110;28;20061;-62
2023/12/12 07:07:01;;;;;;;17.45;8.88;;;5.00;99.90;;;;;;4986335;28;20025;-62
2023/12/12 07:13:08;;;;;;;14.35;8.50;;;5.10;99.90;;;;;;4986250;28;20065;-63
2023/12/12 07:15:33;;;;;;;15.52;7.95;;;5.10;99.90;;;;;;4986154;28;20042;-62
2023/12/12 07:17:59;;;;;;;25.65;13.68;;;5.20;99.90;;;;;;4985360;28;20609;-62
2023/12/12 07:20:25;;;;;;;55.53;33.78;;;5.20;99.90;;;;;;4984260;28;20073;-62
2023/12/12 07:22:50;;;;;;;115.43;62.85;;;5.20;99.90;;;;;;4967396;28;20039;-62
2023/12/12 07:25:16;;;;;;;38.17;26.00;;;5.20;99.90;;;;;;4983217;28;20046;-62
2023/12/12 07:27:42;;;;;;;40.80;18.55;;;5.30;99.90;;;;;;4982592;28;20132;-62
2023/12/12 07:30:10;;;;;;;51.50;18.35;;;5.30;99.90;;;;;;4971284;28;20049;-63
2023/12/12 07:32:36;;;;;;;52.20;16.02;;;5.40;99.90;;;;;;4979863;28;20038;-62
2023/12/12 07:35:02;;;;;;;59.47;16.42;;;5.40;99.90;;;;;;4968531;28;20042;-62
2023/12/12 07:37:28;;;;;;;44.85;14.75;;;5.40;99.90;;;;;;4951888;28;20077;-62
2023/12/12 07:39:53;;;;;;;123.88;23.52;;;5.40;99.90;;;;;;4948172;28;20042;-62
2023/12/12 07:42:19;;;;;;;29.15;13.20;;;5.50;99.90;;;;;;4963209;28;20053;-62
2023/12/12 07:44:45;;;;;;;208.75;30.70;;;5.50;99.90;;;;;;4984437;28;20049;-62
2023/12/12 07:51:02;;;;;;;38.10;17.65;;;5.60;99.90;;;;;;4958593;28;20070;-62
2023/12/12 07:53:28;;;;;;;45.67;16.17;;;5.60;99.90;;;;;;4978117;28;20046;-62
2023/12/12 07:55:53;;;;;;;29.13;14.18;;;5.70;99.90;;;;;;4976213;28;20047;-62
2023/12/12 07:58:19;;;;;;;87.72;21.83;;;5.70;99.90;;;;;;4981815;28;20042;-62
2023/12/12 08:00:45;;;;;;;54.58;18.70;;;5.70;99.90;;;;;;4984047;28;20097;-62
2023/12/12 08:03:10;;;;;;;36.85;16.17;;;5.80;99.90;;;;;;4982241;28;20047;-62
2023/12/12 08:05:37;;;;;;;69.35;19.20;;;5.80;99.90;;;;;;4982497;28;20129;-63
2023/12/12 08:08:04;;;;;;;67.03;18.55;;;5.90;99.90;;;;;;4977698;28;20050;-62
2023/12/12 08:10:30;;;;;;;87.80;18.80;;;5.90;99.90;;;;;;4986511;28;20045;-62
2023/12/12 08:12:57;;;;;;;49.90;18.10;;;5.90;99.90;;;;;;4986205;28;20069;-62
2023/12/12 08:15:23;;;;;;;150.82;25.75;;;6.00;99.90;;;;;;4960040;28;20045;-61
2023/12/12 08:17:49;;;;;;;70.88;19.08;;;6.00;99.90;;;;;;4984587;28;20046;-62
2023/12/12 08:20:15;;;;;;;52.60;19.70;;;6.10;99.90;;;;;;4982362;28;20077;-62
2023/12/12 08:22:40;;;;;;;63.30;17.35;;;6.10;99.90;;;;;;4967045;28;20038;-62
2023/12/12 08:25:07;;;;;;;56.45;20.67;;;6.10;99.90;;;;;;4982556;28;20046;-61
2023/12/12 08:27:33;;;;;;;451.40;44.35;;;6.20;99.90;;;;;;4970473;28;20727;-62
2023/12/12 08:30:04;;;;;;;48.83;18.88;;;6.20;99.90;;;;;;4982267;28;20052;-62
2023/12/12 08:32:30;;;;;;;132.23;22.25;;;6.20;99.90;;;;;;4982765;28;20559;-62
2023/12/12 08:34:56;;;;;;;54.67;16.98;;;6.20;99.90;;;;;;4968538;28;20049;-61
2023/12/12 08:37:22;;;;;;;108.43;21.80;;;6.20;99.90;;;;;;4986633;28;20058;-62
2023/12/12 08:39:47;;;;;;;56.10;17.83;;;6.20;99.90;;;;;;4979753;28;20812;-62
2023/12/12 08:42:14;;;;;;;87.75;23.92;;;6.30;99.90;;;;;;4963119;28;20118;-62
2023/12/12 08:44:43;;;;;;;112.93;24.25;;;6.30;99.90;;;;;;4980819;28;20057;-62
2023/12/12 08:47:10;;;;;;;76.50;21.00;;;6.40;99.90;;;;;;4954575;28;20041;-62
2023/12/12 08:49:38;;;;;;;108.72;26.20;;;6.40;99.90;;;;;;4986751;28;20046;-62
2023/12/12 08:52:08;;;;;;;63.20;20.30;;;6.40;99.90;;;;;;4985638;28;20436;-62
2023/12/12 08:54:37;;;;;;;84.07;20.67;;;6.40;99.90;;;;;;4980139;28;20050;-62
2023/12/12 08:57:04;;;;;;;65.85;20.65;;;6.40;99.90;;;;;;4985523;28;20034;-62
2023/12/12 08:59:30;;;;;;;47.50;17.83;;;6.50;99.90;;;;;;4983907;28;20505;-62
2023/12/12 09:01:56;;;;;;;52.40;18.40;;;6.40;99.90;;;;;;4965966;28;20093;-62
2023/12/12 09:04:21;;;;;;;67.10;19.63;;;6.50;99.90;;;;;;4982150;28;20038;-62
2023/12/12 09:06:47;;;;;;;79.15;20.67;;;6.60;99.90;;;;;;4984243;28;20073;-62
2023/12/12 09:09:14;;;;;;;67.25;19.48;;;6.50;99.90;;;;;;4981334;28;20047;-62
2023/12/12 09:11:40;;;;;;;68.55;20.42;;;6.40;99.90;;;;;;4985832;28;20049;-63
2023/12/12 09:14:07;;;;;;;79.65;20.60;;;6.40;99.90;;;;;;4967094;28;21059;-63
2023/12/12 09:16:32;;;;;;;89.13;20.65;;;6.40;99.90;;;;;;4948380;28;20043;-62
2023/12/12 09:18:58;;;;;;;120.32;24.98;;;6.40;99.90;;;;;;4981954;28;20584;-62
2023/12/12 09:21:24;;;;;;;113.63;23.23;;;6.40;99.90;;;;;;4967185;28;20478;-62
2023/12/12 09:23:49;;;;;;;188.75;28.58;;;6.40;99.90;;;;;;4969349;28;20042;-63
2023/12/12 09:26:15;;;;;;;148.85;24.95;;;6.40;99.90;;;;;;4985213;28;20513;-62
2023/12/12 09:28:42;;;;;;;58.30;21.20;;;6.40;99.90;;;;;;4983960;28;20061;-63
2023/12/12 09:31:11;;;;;;;199.48;33.15;;;6.40;99.90;;;;;;4979960;28;20104;-63
2023/12/12 09:33:38;;;;;;;62.03;21.55;;;6.40;99.90;;;;;;4980092;28;20105;-63
2023/12/12 09:36:06;;;;;;;85.90;23.48;;;6.40;99.90;;;;;;4983707;28;20401;-61
2023/12/12 09:38:31;;;;;;;87.18;22.77;;;6.40;99.90;;;;;;4979075;28;20043;-63
2023/12/12 09:40:57;;;;;;;191.27;36.22;;;6.40;99.90;;;;;;4984879;28;20104;-62
2023/12/12 09:43:26;;;;;;;77.00;23.65;;;6.40;99.90;;;;;;4981455;28;20056;-62
2023/12/12 09:45:57;;;;;;;169.10;33.42;;;6.40;99.90;;;;;;4978809;28;20057;-63
2023/12/12 09:48:23;;;;;;;42.08;21.67;;;6.40;99.90;;;;;;4976056;28;20556;-61
2023/12/12 09:50:50;;;;;;;97.43;30.45;;;6.50;99.90;;;;;;4981237;28;20049;-62
2023/12/12 09:53:18;;;;;;;83.25;28.02;;;6.50;99.90;;;;;;4980225;28;20046;-63
2023/12/12 09:55:45;;;;;;;147.85;37.85;;;6.50;99.90;;;;;;4976742;28;20076;-63
2023/12/12 09:58:11;;;;;;;63.05;28.13;;;6.50;99.90;;;;;;4969893;28;20072;-63
2023/12/12 10:00:37;;;;;;;69.97;28.85;;;6.50;99.90;;;;;;4985229;28;20657;-62
2023/12/12 10:03:06;;;;;;;91.20;32.03;;;6.50;99.90;;;;;;4986638;28;20038;-63
2023/12/12 10:05:38;;;;;;;139.32;38.00;;;6.50;99.90;;;;;;4985486;28;20050;-63
2023/12/12 10:08:05;;;;;;;83.32;32.28;;;6.60;99.90;;;;;;4984937;28;20534;-62
2023/12/12 10:10:31;;;;;;;101.47;30.83;;;6.60;99.90;;;;;;4966675;28;20043;-61
2023/12/12 10:12:57;;;;;;;179.85;38.85;;;6.60;99.90;;;;;;4984919;28;20712;-62
2023/12/12 10:15:25;;;;;;;185.60;39.17;;;6.60;99.90;;;;;;4979534;28;20096;-62
2023/12/12 10:17:58;;;;;;;70.20;31.63;;;6.60;99.90;;;;;;4979927;28;20084;-63
2023/12/12 10:20:26;;;;;;;72.63;30.03;;;6.50;99.90;;;;;;4983180;28;20035;-63
2023/12/12 10:23:00;;;;;;;52.25;27.98;;;6.60;99.90;;;;;;4985717;28;20042;-62
2023/12/12 10:25:29;;;;;;;;;;;6.50;99.90;;;;;;4986094;28;20046;-62
2023/12/12 10:27:56;;;;;;;154.27;33.80;;;6.50;99.90;;;;;;4985263;28;19933;-62
2023/12/12 10:30:22;;;;;;;197.98;36.90;;;6.40;99.90;;;;;;4986334;28;20046;-63
2023/12/12 10:32:52;;;;;;;87.05;27.95;;;6.40;99.90;;;;;;4969182;28;20045;-63
2023/12/12 10:35:19;;;;;;;89.05;28.98;;;6.30;99.90;;;;;;4976331;28;20494;-62
2023/12/12 10:37:45;;;;;;;212.15;39.08;;;6.30;99.90;;;;;;4985563;28;20049;-63
2023/12/12 10:40:14;;;;;;;322.27;49.97;;;6.40;99.90;;;;;;4984391;28;20046;-61
2023/12/12 10:42:40;;;;;;;159.57;38.33;;;6.40;99.90;;;;;;4982089;28;20038;-61
2023/12/12 10:45:16;;;;;;;144.43;35.60;;;6.30;99.90;;;;;;4984727;28;20042;-62
2023/12/12 10:47:48;;;;;;;161.43;38.38;;;6.40;99.90;;;;;;4981251;28;20051;-62
2023/12/12 10:50:15;;;;;;;106.88;36.58;;;6.40;99.90;;;;;;4986303;28;20117;-62
2023/12/12 10:52:43;;;;;;;132.68;40.83;;;6.40;99.90;;;;;;4987018;28;20129;-62
2023/12/12 10:55:11;;;;;;;148.90;41.92;;;6.40;99.90;;;;;;4967454;28;20373;-62
2023/12/12 10:57:43;;;;;;;105.22;36.83;;;6.50;99.90;;;;;;4961144;28;20043;-62
2023/12/12 11:00:14;;;;;;;81.97;34.25;;;6.50;99.90;;;;;;4965808;28;20042;-62
2023/12/12 11:02:41;;;;;;;74.13;33.20;;;6.50;99.90;;;;;;4981749;28;20049;-62
2023/12/12 11:05:14;;;;;;;80.43;34.78;;;6.50;99.90;;;;;;4983666;28;20064;-62
2023/12/12 11:07:42;;;;;;;71.18;33.95;;;6.60;99.90;;;;;;4984619;28;20101;-62
2023/12/12 11:10:13;;;;;;;62.85;30.67;;;6.70;99.90;;;;;;4986210;28;20038;-62
2023/12/12 11:12:44;;;;;;;61.20;30.98;;;6.70;99.90;;;;;;4983065;28;20050;-62
2023/12/12 11:15:12;;;;;;;55.47;28.08;;;6.70;99.90;;;;;;4980970;28;20030;-62
2023/12/12 11:17:39;;;;;;;51.42;27.48;;;6.80;99.90;;;;;;4963167;28;20045;-61
2023/12/12 11:20:12;;;;;;;52.03;27.42;;;6.80;99.90;;;;;;4983388;28;20129;-63
2023/12/12 11:22:40;;;;;;;46.28;26.02;;;6.80;99.90;;;;;;4977760;28;20042;-62
2023/12/12 11:25:10;;;;;;;46.15;25.33;;;6.80;99.90;;;;;;4979535;28;20047;-61
2023/12/12 11:27:42;;;;;;;46.40;27.02;;;6.80;99.90;;;;;;4980100;28;20049;-62
2023/12/12 11:30:09;;;;;;;56.28;28.05;;;6.90;99.90;;;;;;4977765;28;20142;-62
2023/12/12 11:32:35;;;;;;;52.50;26.95;;;6.90;99.90;;;;;;4985718;28;20445;-61
2023/12/12 11:35:07;;;;;;;49.60;28.55;;;6.90;99.90;;;;;;4982487;28;20104;-62
2023/12/12 11:37:43;;;;;;;52.20;29.23;;;6.90;99.90;;;;;;4981459;28;20441;-62
2023/12/12 11:40:11;;;;;;;42.97;25.08;;;6.90;99.90;;;;;;4994924;28;20086;-62
2023/12/12 11:42:37;;;;;;;45.72;26.23;;;6.90;99.90;;;;;;4980553;28;20053;-61
2023/12/12 11:45:03;;;;;;;48.80;26.85;;;6.90;99.90;;;;;;4983963;28;20463;-61
2023/12/12 11:47:32;;;;;;;47.28;26.48;;;7.00;99.90;;;;;;4953365;28;20069;-61
2023/12/12 11:50:15;;;;;;;49.47;28.45;;;7.00;99.90;;;;;;4981906;28;20034;-62
2023/12/12 11:52:41;;;;;;;48.92;26.70;;;7.10;99.90;;;;;;4966366;28;20066;-62
2023/12/12 11:55:17;;;;;;;46.00;26.25;;;7.10;99.90;;;;;;4986605;28;20043;-62
2023/12/12 11:57:44;;;;;;;46.35;26.00;;;7.10;99.90;;;;;;4973387;28;20066;-64
2023/12/12 12:00:13;;;;;;;48.65;27.67;;;7.10;99.90;;;;;;4990747;28;20034;-61
2023/12/12 12:02:43;;;;;;;48.42;26.70;;;7.20;99.90;;;;;;4987799;28;20055;-62
2023/12/12 12:05:09;;;;;;;50.20;27.52;;;7.20;99.90;;;;;;4969336;28;20050;-62
2023/12/12 12:07:38;;;;;;;51.55;27.90;;;7.20;99.90;;;;;;4988957;28;20078;-61
2023/12/12 12:10:05;;;;;;;47.72;26.83;;;7.30;99.90;;;;;;4988933;28;20034;-61
2023/12/12 12:13:21;;;;;;;46.92;26.23;;;7.30;99.90;;;;;;4973233;28;20427;-62
2023/12/12 12:15:50;;;;;;;49.67;26.15;;;7.30;99.90;;;;;;4980816;28;20124;-60
2023/12/12 12:18:26;;;;;;;49.15;26.77;;;7.30;99.90;;;;;;4989159;28;20042;-62
2023/12/12 12:20:52;;;;;;;46.15;26.02;;;7.40;99.90;;;;;;4987035;28;20077;-62
2023/12/12 12:23:17;;;;;;;60.50;30.05;;;7.40;99.90;;;;;;4983287;28;20588;-63
2023/12/12 12:25:43;;;;;;;56.00;29.17;;;7.40;99.90;;;;;;4987960;28;20036;-62
2023/12/12 12:28:09;;;;;;;53.78;29.13;;;7.40;99.90;;;;;;4972035;28;20074;-62
2023/12/12 12:30:47;;;;;;;72.93;34.05;;;7.40;99.90;;;;;;4980200;28;20045;-62
2023/12/12 12:33:15;;;;;;;67.47;37.40;;;7.40;99.90;;;;;;4994086;28;20038;-61
2023/12/12 12:35:51;;;;;;;61.20;33.63;;;7.40;99.90;;;;;;4965006;28;20050;-62
2023/12/12 12:38:28;;;;;;;60.40;33.25;;;7.40;99.90;;;;;;4984574;28;20042;-61
2023/12/12 12:40:54;;;;;;;66.80;33.35;;;7.40;99.90;;;;;;4984417;28;20050;-62
2023/12/12 12:43:22;;;;;;;55.42;30.08;;;7.40;99.90;;;;;;4973550;28;20049;-62
2023/12/12 12:45:49;;;;;;;63.42;32.10;;;7.40;99.90;;;;;;4980403;28;20043;-62
2023/12/12 12:48:15;;;;;;;52.25;27.13;;;7.40;99.90;;;;;;4983265;28;20050;-62
2023/12/12 12:50:42;;;;;;;61.03;31.23;;;7.40;99.90;;;;;;4988556;28;20509;-62
2023/12/12 12:53:10;;;;;;;63.58;32.45;;;7.40;99.90;;;;;;4980668;28;20053;-61
2023/12/12 12:55:38;;;;;;;54.92;30.38;;;7.50;99.90;;;;;;4981766;28;20599;-61